createdAt,value
2023-03-07T00:00:31.903Z,5.28
2023-03-07T00:01:31.920Z,5.31
2023-03-07T00:02:31.837Z,5.31
2023-03-07T00:03:31.974Z,5.26
2023-03-07T00:04:31.698Z,5.33
2023-03-07T00:05:31.651Z,5.29
2023-03-07T00:06:31.903Z,5.31
2023-03-07T00:07:31.567Z,5.31
2023-03-07T00:08:31.764Z,5.38
2023-03-07T00:09:31.477Z,5.33
2023-03-07T00:10:31.569Z,5.36
2023-03-07T00:11:31.538Z,5.46
2023-03-07T00:12:31.351Z,5.37
2023-03-07T00:13:31.489Z,5.38
2023-03-07T00:14:31.217Z,5.33
2023-03-07T00:15:31.357Z,5.36
2023-03-07T00:16:31.229Z,5.38
2023-03-07T00:17:31.069Z,5.23
2023-03-07T00:18:31.372Z,5.25
2023-03-07T00:19:30.980Z,5.26
2023-03-07T00:20:31.025Z,5.26
2023-03-07T00:21:30.888Z,5.28
2023-03-07T00:22:31.046Z,5.29
2023-03-07T00:23:30.788Z,5.33
2023-03-07T00:24:30.855Z,5.33
2023-03-07T00:25:30.698Z,5.33
2023-03-07T00:26:30.871Z,5.36
2023-03-07T00:27:30.610Z,5.40
2023-03-07T00:28:30.625Z,5.41
2023-03-07T00:29:30.502Z,5.43
2023-03-07T00:30:30.845Z,5.52
2023-03-07T00:31:30.454Z,5.51
2023-03-07T00:32:30.537Z,5.47
2023-03-07T00:33:30.317Z,5.41
2023-03-07T00:34:30.262Z,5.47
2023-03-07T00:35:30.262Z,5.47
2023-03-07T00:36:30.479Z,5.47
2023-03-07T00:37:30.120Z,5.41
2023-03-07T00:38:30.252Z,5.28
2023-03-07T00:39:30.027Z,5.31
2023-03-07T00:40:29.977Z,5.25
2023-03-07T00:41:29.925Z,5.23
2023-03-07T00:42:30.070Z,5.10
2023-03-07T00:43:29.843Z,5.05
2023-03-07T00:44:29.821Z,5.10
2023-03-07T00:45:29.759Z,5.16
2023-03-07T00:46:29.687Z,5.07
2023-03-07T00:47:29.905Z,5.01
2023-03-07T00:48:29.964Z,4.97
2023-03-07T00:49:50.799Z,4.89
2023-03-07T00:50:29.509Z,4.90
2023-03-07T00:51:29.673Z,4.95
2023-03-07T00:52:29.507Z,4.86
2023-03-07T00:53:29.357Z,4.82
2023-03-07T00:54:29.440Z,4.82
2023-03-07T00:55:29.262Z,4.84
2023-03-07T00:56:29.454Z,4.74
2023-03-07T00:57:29.165Z,4.74
2023-03-07T00:58:29.115Z,4.76
2023-03-07T00:59:29.267Z,4.74
2023-03-07T01:00:29.319Z,4.86
2023-03-07T01:01:29.078Z,4.84
2023-03-07T01:02:28.932Z,4.90
2023-03-07T01:03:28.994Z,4.84
2023-03-07T01:04:28.905Z,4.90
2023-03-07T01:05:28.958Z,5.02
2023-03-07T01:06:28.792Z,4.94
2023-03-07T01:07:28.858Z,4.95
2023-03-07T01:08:28.640Z,5.00
2023-03-07T01:09:28.728Z,5.08
2023-03-07T01:10:28.554Z,5.04
2023-03-07T01:11:28.690Z,5.16
2023-03-07T01:12:28.536Z,5.20
2023-03-07T01:13:28.554Z,5.16
2023-03-07T01:14:28.376Z,5.25
2023-03-07T01:15:28.309Z,5.31
2023-03-07T01:16:28.294Z,5.29
2023-03-07T01:17:28.319Z,5.31
2023-03-07T01:18:28.183Z,5.36
2023-03-07T01:19:28.189Z,5.37
2023-03-07T01:20:28.249Z,5.41
2023-03-07T01:21:28.018Z,5.46
2023-03-07T01:22:27.973Z,5.55
2023-03-07T01:23:28.014Z,5.58
2023-03-07T01:24:27.875Z,5.64
2023-03-07T01:25:27.961Z,5.55
2023-03-07T01:26:27.814Z,5.64
2023-03-07T01:27:27.745Z,5.61
2023-03-07T01:28:27.682Z,5.61
2023-03-07T01:29:27.848Z,5.64
2023-03-07T01:30:27.601Z,5.72
2023-03-07T01:31:27.710Z,5.74
2023-03-07T01:32:27.750Z,5.80
2023-03-07T01:33:27.452Z,5.81
2023-03-07T01:34:27.395Z,5.84
2023-03-07T01:35:27.491Z,5.79
2023-03-07T01:36:27.385Z,5.80
2023-03-07T01:37:27.500Z,5.84
2023-03-07T01:38:27.229Z,5.80
2023-03-07T01:39:27.159Z,5.91
2023-03-07T01:40:27.116Z,5.92
2023-03-07T01:41:27.224Z,5.92
2023-03-07T01:42:27.024Z,5.90
2023-03-07T01:43:27.235Z,5.83
2023-03-07T01:44:27.295Z,5.84
2023-03-07T01:45:26.880Z,5.91
2023-03-07T01:46:27.060Z,5.84
2023-03-07T01:47:26.781Z,5.83
2023-03-07T01:48:26.863Z,5.83
2023-03-07T01:49:26.696Z,5.81
2023-03-07T01:50:26.880Z,5.72
2023-03-07T01:51:26.589Z,5.79
2023-03-07T01:52:26.723Z,5.77
2023-03-07T01:53:26.492Z,5.74
2023-03-07T01:54:26.601Z,5.76
2023-03-07T01:55:26.401Z,5.79
2023-03-07T01:56:26.748Z,5.77
2023-03-07T01:57:26.315Z,5.80
2023-03-07T01:58:26.434Z,5.83
2023-03-07T01:59:26.210Z,5.79
2023-03-07T02:00:26.437Z,5.76
2023-03-07T02:01:26.202Z,5.77
2023-03-07T02:02:26.083Z,5.87
2023-03-07T02:03:26.015Z,5.87
2023-03-07T02:04:26.196Z,5.90
2023-03-07T02:05:25.935Z,5.92
2023-03-07T02:06:26.076Z,5.90
2023-03-07T02:07:25.823Z,5.91
2023-03-07T02:08:25.866Z,5.87
2023-03-07T02:09:25.748Z,5.83
2023-03-07T02:10:25.824Z,5.81
2023-03-07T02:11:25.683Z,5.83
2023-03-07T02:12:25.726Z,5.80
2023-03-07T02:13:25.595Z,5.77
2023-03-07T02:14:25.513Z,5.80
2023-03-07T02:15:25.612Z,5.87
2023-03-07T02:16:25.404Z,5.74
2023-03-07T02:17:25.662Z,5.80
2023-03-07T02:18:25.328Z,5.79
2023-03-07T02:19:25.397Z,5.83
2023-03-07T02:20:25.431Z,5.79
2023-03-07T02:21:25.164Z,5.64
2023-03-07T02:22:25.271Z,5.61
2023-03-07T02:23:25.064Z,5.65
2023-03-07T02:24:25.294Z,5.64
2023-03-07T02:25:24.964Z,5.76
2023-03-07T02:26:24.931Z,5.65
2023-03-07T02:27:24.932Z,5.67
2023-03-07T02:28:24.852Z,5.76
2023-03-07T02:29:24.950Z,5.67
2023-03-07T02:30:24.729Z,5.79
2023-03-07T02:31:24.821Z,5.70
2023-03-07T02:32:25.121Z,5.74
2023-03-07T02:33:25.790Z,5.77
2023-03-07T02:34:24.541Z,5.79
2023-03-07T02:35:24.718Z,5.76
2023-03-07T02:36:24.449Z,5.80
2023-03-07T02:37:24.668Z,5.81
2023-03-07T02:38:24.363Z,5.77
2023-03-07T02:39:24.573Z,5.79
2023-03-07T02:40:24.260Z,5.79
2023-03-07T02:41:24.386Z,5.70
2023-03-07T02:42:24.165Z,5.72
2023-03-07T02:43:24.128Z,5.73
2023-03-07T02:44:24.253Z,5.90
2023-03-07T02:45:24.207Z,5.92
2023-03-07T02:46:23.976Z,5.90
2023-03-07T02:47:24.026Z,5.92
2023-03-07T02:48:23.900Z,5.95
2023-03-07T02:49:23.825Z,5.94
2023-03-07T02:50:23.966Z,5.88
2023-03-07T02:51:23.845Z,5.87
2023-03-07T02:52:23.679Z,5.95
2023-03-07T02:53:23.863Z,5.99
2023-03-07T02:54:23.584Z,5.97
2023-03-07T02:55:23.535Z,6.05
2023-03-07T02:56:23.729Z,6.02
2023-03-07T02:57:23.680Z,5.99
2023-03-07T02:58:23.433Z,5.99
2023-03-07T02:59:23.494Z,6.05
2023-03-07T03:00:23.324Z,6.07
2023-03-07T03:01:23.290Z,6.09
2023-03-07T03:02:23.238Z,6.12
2023-03-07T03:03:23.652Z,6.17
2023-03-07T03:04:23.133Z,6.10
2023-03-07T03:05:23.256Z,6.07
2023-03-07T03:06:23.019Z,6.13
2023-03-07T03:07:22.973Z,6.17
2023-03-07T03:08:22.930Z,6.02
2023-03-07T03:09:25.040Z,6.22
2023-03-07T03:10:22.828Z,6.10
2023-03-07T03:11:22.979Z,6.19
2023-03-07T03:12:22.739Z,6.20
2023-03-07T03:13:22.690Z,6.20
2023-03-07T03:14:22.804Z,6.20
2023-03-07T03:15:22.855Z,6.19
2023-03-07T03:16:43.705Z,6.20
2023-03-07T03:17:22.510Z,6.20
2023-03-07T03:18:22.529Z,6.19
2023-03-07T03:19:22.427Z,6.28
2023-03-07T03:20:22.634Z,6.26
2023-03-07T03:21:22.311Z,6.25
2023-03-07T03:22:22.438Z,6.25
2023-03-07T03:23:22.218Z,6.29
2023-03-07T03:24:22.167Z,6.28
2023-03-07T03:25:22.303Z,6.28
2023-03-07T03:26:22.263Z,6.28
2023-03-07T03:27:22.027Z,6.32
2023-03-07T03:28:22.279Z,6.26
2023-03-07T03:29:21.934Z,6.32
2023-03-07T03:30:22.085Z,6.31
2023-03-07T03:31:21.918Z,6.32
2023-03-07T03:32:21.943Z,6.25
2023-03-07T03:33:21.740Z,6.25
2023-03-07T03:34:21.922Z,6.29
2023-03-07T03:35:21.655Z,6.15
2023-03-07T03:36:21.773Z,6.25
2023-03-07T03:37:21.550Z,6.13
2023-03-07T03:38:21.733Z,6.25
2023-03-07T03:39:21.451Z,6.13
2023-03-07T03:40:21.545Z,6.15
2023-03-07T03:41:21.361Z,6.12
2023-03-07T03:42:21.345Z,6.25
2023-03-07T03:43:21.568Z,6.13
2023-03-07T03:44:21.212Z,6.22
2023-03-07T03:45:21.381Z,6.19
2023-03-07T03:46:21.193Z,6.19
2023-03-07T03:47:21.184Z,6.13
2023-03-07T03:48:22.473Z,6.10
2023-03-07T03:49:21.206Z,6.06
2023-03-07T03:50:20.934Z,6.12
2023-03-07T03:51:21.113Z,6.07
2023-03-07T03:52:21.073Z,6.13
2023-03-07T03:53:20.841Z,6.10
2023-03-07T03:54:20.769Z,5.98
2023-03-07T03:55:20.743Z,5.98
2023-03-07T03:56:20.799Z,6.01
2023-03-07T03:57:20.755Z,5.92
2023-03-07T03:58:20.554Z,5.95
2023-03-07T03:59:20.537Z,5.99
2023-03-07T04:00:21.186Z,5.91
2023-03-07T04:01:20.405Z,5.90
2023-03-07T04:02:20.605Z,5.90
2023-03-07T04:03:20.319Z,5.98
2023-03-07T04:04:20.298Z,5.94
2023-03-07T04:05:20.453Z,5.88
2023-03-07T04:06:20.310Z,5.95
2023-03-07T04:07:20.158Z,5.91
2023-03-07T04:08:20.224Z,5.99
2023-03-07T04:09:20.033Z,5.88
2023-03-07T04:10:20.233Z,5.90
2023-03-07T04:11:19.928Z,5.84
2023-03-07T04:12:19.939Z,5.76
2023-03-07T04:13:20.092Z,5.80
2023-03-07T04:14:20.059Z,5.84
2023-03-07T04:15:19.745Z,5.80
2023-03-07T04:16:19.801Z,5.76
2023-03-07T04:17:19.643Z,5.83
2023-03-07T04:18:19.875Z,5.80
2023-03-07T04:19:21.164Z,5.76
2023-03-07T04:20:19.686Z,5.65
2023-03-07T04:21:19.453Z,5.67
2023-03-07T04:22:19.410Z,5.65
2023-03-07T04:23:19.363Z,5.72
2023-03-07T04:24:19.523Z,5.64
2023-03-07T04:25:19.585Z,5.67
2023-03-07T04:26:19.527Z,5.65
2023-03-07T04:27:19.174Z,5.65
2023-03-07T04:28:19.118Z,5.73
2023-03-07T04:29:19.340Z,5.74
2023-03-07T04:30:19.023Z,5.62
2023-03-07T04:31:19.337Z,5.73
2023-03-07T04:32:18.946Z,5.65
2023-03-07T04:33:19.084Z,5.64
2023-03-07T04:34:18.831Z,5.67
2023-03-07T04:35:18.979Z,5.61
2023-03-07T04:36:18.747Z,5.67
2023-03-07T04:37:19.090Z,5.70
2023-03-07T04:38:18.640Z,5.58
2023-03-07T04:39:18.592Z,5.65
2023-03-07T04:40:18.556Z,5.52
2023-03-07T04:41:18.733Z,5.55
2023-03-07T04:42:18.456Z,5.54
2023-03-07T04:43:18.841Z,5.58
2023-03-07T04:44:18.351Z,5.65
2023-03-07T04:45:18.307Z,5.55
2023-03-07T04:46:18.312Z,5.49
2023-03-07T04:47:18.349Z,5.54
2023-03-07T04:48:18.173Z,5.55
2023-03-07T04:49:18.364Z,5.46
2023-03-07T04:50:18.075Z,5.51
2023-03-07T04:51:18.022Z,5.51
2023-03-07T04:52:18.184Z,5.58
2023-03-07T04:53:17.925Z,5.47
2023-03-07T04:54:18.200Z,5.47
2023-03-07T04:55:18.050Z,5.46
2023-03-07T04:56:17.896Z,5.54
2023-03-07T04:57:17.775Z,5.46
2023-03-07T04:58:18.843Z,5.43
2023-03-07T04:59:17.922Z,5.51
2023-03-07T05:00:17.724Z,5.46
2023-03-07T05:01:17.621Z,5.49
2023-03-07T05:02:17.497Z,5.46
2023-03-07T05:03:17.816Z,5.47
2023-03-07T05:04:17.508Z,5.54
2023-03-07T05:05:17.347Z,5.58
2023-03-07T05:06:17.587Z,5.46
2023-03-07T05:07:17.266Z,5.46
2023-03-07T05:08:17.220Z,5.54
2023-03-07T05:09:17.360Z,5.55
2023-03-07T05:10:17.217Z,5.59
2023-03-07T05:11:17.078Z,5.59
2023-03-07T05:12:17.210Z,5.58
2023-03-07T05:13:16.970Z,5.61
2023-03-07T05:14:16.919Z,5.51
2023-03-07T05:15:17.220Z,5.54
2023-03-07T05:16:16.892Z,5.67
2023-03-07T05:17:16.827Z,5.65
2023-03-07T05:18:16.728Z,5.69
2023-03-07T05:19:16.839Z,5.58
2023-03-07T05:20:16.634Z,5.62
2023-03-07T05:21:16.648Z,5.61
2023-03-07T05:22:16.535Z,5.62
2023-03-07T05:23:16.671Z,5.65
2023-03-07T05:24:16.454Z,5.61
2023-03-07T05:25:16.394Z,5.67
2023-03-07T05:26:16.538Z,5.67
2023-03-07T05:27:16.547Z,5.61
2023-03-07T05:28:16.272Z,5.59
2023-03-07T05:29:16.300Z,5.65
2023-03-07T05:30:16.360Z,5.65
2023-03-07T05:31:18.330Z,5.58
2023-03-07T05:32:16.138Z,5.55
2023-03-07T05:33:16.008Z,5.56
2023-03-07T05:34:16.130Z,5.61
2023-03-07T05:35:15.946Z,5.65
2023-03-07T05:36:16.049Z,5.62
2023-03-07T05:37:15.820Z,5.64
2023-03-07T05:38:15.889Z,5.64
2023-03-07T05:39:15.731Z,5.65
2023-03-07T05:40:15.877Z,5.61
2023-03-07T05:41:15.739Z,5.67
2023-03-07T05:42:15.618Z,5.64
2023-03-07T05:43:18.057Z,5.59
2023-03-07T05:44:15.707Z,5.65
2023-03-07T05:45:15.441Z,5.49
2023-03-07T05:46:15.681Z,5.55
2023-03-07T05:47:15.471Z,5.62
2023-03-07T05:48:15.297Z,5.56
2023-03-07T05:49:15.251Z,5.55
2023-03-07T05:50:15.432Z,5.56
2023-03-07T05:51:15.159Z,5.59
2023-03-07T05:52:15.251Z,5.62
2023-03-07T05:53:15.300Z,5.55
2023-03-07T05:54:15.011Z,5.52
2023-03-07T05:55:15.064Z,5.51
2023-03-07T05:56:14.946Z,5.56
2023-03-07T05:57:15.083Z,5.61
2023-03-07T05:58:14.854Z,5.56
2023-03-07T05:59:14.898Z,5.54
2023-03-07T06:03:48.209Z,5.41
2023-03-07T06:04:46.781Z,5.37
2023-03-07T06:05:46.722Z,5.25
2023-03-07T06:06:46.675Z,5.26
2023-03-07T06:07:46.800Z,5.22
2023-03-07T06:08:46.585Z,5.20
2023-03-07T06:09:46.800Z,5.23
2023-03-07T06:10:46.476Z,5.15
2023-03-07T06:11:46.430Z,5.12
2023-03-07T06:12:46.412Z,5.15
2023-03-07T06:13:46.336Z,5.18
2023-03-07T06:14:46.436Z,5.23
2023-03-07T06:15:46.514Z,5.18
2023-03-07T06:16:46.191Z,5.18
2023-03-07T06:17:46.141Z,5.18
2023-03-07T06:18:46.161Z,5.20
2023-03-07T06:19:46.046Z,5.20
2023-03-07T06:22:22.577Z,5.26
2023-03-07T06:23:15.253Z,5.13
2023-03-07T06:24:13.997Z,5.19
2023-03-07T06:25:14.061Z,5.19
2023-03-07T06:26:14.021Z,5.22
2023-03-07T06:27:14.992Z,5.23
2023-03-07T06:28:13.972Z,5.22
2023-03-07T06:29:13.760Z,5.16
2023-03-07T06:30:13.997Z,5.23
2023-03-07T06:31:13.712Z,5.16
2023-03-07T06:32:13.821Z,5.23
2023-03-07T06:33:13.580Z,5.31
2023-03-07T06:34:13.526Z,5.23
2023-03-07T06:35:13.630Z,5.36
2023-03-07T06:36:13.447Z,5.33
2023-03-07T06:37:13.427Z,5.40
2023-03-07T06:38:13.482Z,5.47
2023-03-07T06:39:13.468Z,5.41
2023-03-07T06:40:13.235Z,5.47
2023-03-07T06:41:13.248Z,5.51
2023-03-07T06:42:13.133Z,5.52
2023-03-07T06:43:13.162Z,5.70
2023-03-07T06:44:13.071Z,5.59
2023-03-07T06:45:12.996Z,5.62
2023-03-07T06:46:13.028Z,5.69
2023-03-07T06:47:12.984Z,5.65
2023-03-07T06:48:12.858Z,5.72
2023-03-07T06:49:12.899Z,5.67
2023-03-07T06:50:12.959Z,5.77
2023-03-07T06:51:12.707Z,5.76
2023-03-07T06:52:12.662Z,5.83
2023-03-07T06:53:12.725Z,5.80
2023-03-07T06:54:12.571Z,5.95
2023-03-07T06:55:12.746Z,5.81
2023-03-07T06:56:12.473Z,5.95
2023-03-07T06:57:12.419Z,5.97
2023-03-07T06:58:12.559Z,5.98
2023-03-07T06:59:12.340Z,6.07
2023-03-07T07:00:13.383Z,6.09
2023-03-07T07:01:12.267Z,6.10
2023-03-07T07:02:12.438Z,6.07
2023-03-07T07:03:12.259Z,6.29
2023-03-07T07:04:12.393Z,6.32
2023-03-07T07:05:12.054Z,6.39
2023-03-07T07:06:12.201Z,6.44
2023-03-07T07:07:11.976Z,6.39
2023-03-07T07:08:11.912Z,6.39
2023-03-07T07:09:11.922Z,6.47
2023-03-07T07:10:11.828Z,6.56
2023-03-07T07:11:11.937Z,6.46
2023-03-07T07:12:11.712Z,6.59
2023-03-07T07:13:11.748Z,6.53
2023-03-07T07:14:11.618Z,6.67
2023-03-07T07:15:11.761Z,6.68
2023-03-07T07:16:11.842Z,6.56
2023-03-07T07:17:11.664Z,6.64
2023-03-07T07:18:11.538Z,6.67
2023-03-07T07:19:11.381Z,6.68
2023-03-07T07:20:11.366Z,6.77
2023-03-07T07:21:11.494Z,6.78
2023-03-07T07:22:11.270Z,6.85
2023-03-07T07:23:11.302Z,6.83
2023-03-07T07:24:11.162Z,6.92
2023-03-07T07:25:11.099Z,6.97
2023-03-07T07:26:11.064Z,6.95
2023-03-07T07:27:12.631Z,7.00
2023-03-07T07:28:11.192Z,7.11
2023-03-07T07:29:11.165Z,6.95
2023-03-07T07:30:10.864Z,7.05
2023-03-07T07:31:10.816Z,7.01
2023-03-07T07:32:10.912Z,7.10
2023-03-07T07:33:10.937Z,7.25
2023-03-07T07:34:10.702Z,7.05
2023-03-07T07:35:10.878Z,7.13
2023-03-07T07:36:10.593Z,7.19
2023-03-07T07:37:10.749Z,7.19
2023-03-07T07:38:10.703Z,7.15
2023-03-07T07:39:10.441Z,7.11
2023-03-07T07:40:10.537Z,7.32
2023-03-07T07:41:10.347Z,7.33
2023-03-07T07:42:10.307Z,7.31
2023-03-07T07:43:10.505Z,7.28
2023-03-07T07:44:10.334Z,7.40
2023-03-07T07:45:10.205Z,7.40
2023-03-07T07:46:10.267Z,7.43
2023-03-07T07:47:10.091Z,7.58
2023-03-07T07:48:10.031Z,7.59
2023-03-07T07:49:10.216Z,7.46
2023-03-07T07:50:10.177Z,7.62
2023-03-07T07:51:09.884Z,7.70
2023-03-07T07:52:11.006Z,7.75
2023-03-07T07:53:09.785Z,7.72
2023-03-07T07:54:09.748Z,7.90
2023-03-07T07:55:10.004Z,7.85
2023-03-07T07:56:09.647Z,7.91
2023-03-07T07:57:09.818Z,7.88
2023-03-07T07:58:09.560Z,7.90
2023-03-07T07:59:09.625Z,7.85
2023-03-07T08:00:09.684Z,7.91
2023-03-07T08:01:09.641Z,7.87
2023-03-07T08:02:09.394Z,8.03
2023-03-07T08:03:09.517Z,8.01
2023-03-07T08:04:09.279Z,8.03
2023-03-07T08:05:09.244Z,8.03
2023-03-07T08:06:09.187Z,8.13
2023-03-07T08:07:09.686Z,8.23
2023-03-07T08:08:09.171Z,8.21
2023-03-07T08:09:09.185Z,8.35
2023-03-07T08:10:09.010Z,8.39
2023-03-07T08:11:08.958Z,8.42
2023-03-07T08:12:08.923Z,8.39
2023-03-07T08:13:09.038Z,8.36
2023-03-07T08:14:08.814Z,8.46
2023-03-07T08:15:09.053Z,8.60
2023-03-07T08:16:08.774Z,8.75
2023-03-07T08:17:08.677Z,8.95
2023-03-07T08:18:08.859Z,8.86
2023-03-07T08:19:08.713Z,9.02
2023-03-07T08:20:08.684Z,9.08
2023-03-07T08:21:08.493Z,9.09
2023-03-07T08:22:29.459Z,9.27
2023-03-07T08:23:08.405Z,9.34
2023-03-07T08:24:08.618Z,9.40
2023-03-07T08:25:08.356Z,9.49
2023-03-07T08:26:10.445Z,9.64
2023-03-07T08:27:08.483Z,9.73
2023-03-07T08:28:08.176Z,9.82
2023-03-07T08:29:08.130Z,9.84
2023-03-07T08:30:08.222Z,9.90
2023-03-07T08:31:08.087Z,10.02
2023-03-07T08:32:08.865Z,10.06
2023-03-07T08:33:07.958Z,10.12
2023-03-07T08:34:07.902Z,10.20
2023-03-07T08:35:08.055Z,10.20
2023-03-07T08:36:07.851Z,10.21
2023-03-07T08:37:07.861Z,10.31
2023-03-07T08:38:07.941Z,10.33
2023-03-07T08:39:07.683Z,10.38
2023-03-07T08:40:07.630Z,10.41
2023-03-07T08:41:07.687Z,10.45
2023-03-07T08:42:07.546Z,10.36
2023-03-07T08:43:07.702Z,10.46
2023-03-07T08:44:07.479Z,10.57
2023-03-07T08:45:07.409Z,10.69
2023-03-07T08:46:07.687Z,10.83
2023-03-07T08:47:07.472Z,10.98
2023-03-07T08:48:07.430Z,11.08
2023-03-07T08:49:07.220Z,11.19
2023-03-07T08:50:07.443Z,11.33
2023-03-07T08:51:07.132Z,11.35
2023-03-07T08:52:07.255Z,11.45
2023-03-07T08:53:07.068Z,11.40
2023-03-07T08:54:07.263Z,11.41
2023-03-07T08:55:06.953Z,11.59
2023-03-07T08:56:06.904Z,11.48
2023-03-07T08:57:06.871Z,11.41
2023-03-07T08:58:07.102Z,11.43
2023-03-07T08:59:06.950Z,11.45
2023-03-07T09:00:06.902Z,11.49
2023-03-07T09:01:06.686Z,11.55
2023-03-07T09:02:06.755Z,11.60
2023-03-07T09:03:06.718Z,11.59
2023-03-07T09:04:06.548Z,11.89
2023-03-07T09:05:06.798Z,12.00
2023-03-07T09:06:06.471Z,12.03
2023-03-07T09:07:06.424Z,12.08
2023-03-07T09:08:07.630Z,12.08
2023-03-07T09:09:06.551Z,12.25
2023-03-07T09:10:06.302Z,12.29
2023-03-07T09:11:08.411Z,12.48
2023-03-07T09:12:06.194Z,12.61
2023-03-07T09:13:09.712Z,12.66
2023-03-07T09:15:40.590Z,12.84
2023-03-07T09:16:38.271Z,13.08
2023-03-07T09:17:45.834Z,13.24
2023-03-07T09:18:38.117Z,13.46
2023-03-07T09:19:38.272Z,13.58
2023-03-07T09:20:38.004Z,13.85
2023-03-07T09:21:39.110Z,14.23
2023-03-07T09:22:37.912Z,14.78
2023-03-07T09:23:38.101Z,14.94
2023-03-07T09:24:37.990Z,15.07
2023-03-07T09:25:37.906Z,14.71
2023-03-07T09:26:37.810Z,14.67
2023-03-07T09:27:37.936Z,14.81
2023-03-07T09:28:37.662Z,15.14
2023-03-07T09:29:37.616Z,15.54
2023-03-07T09:30:37.953Z,15.96
2023-03-07T09:31:37.608Z,16.36
2023-03-07T09:32:37.811Z,16.72
2023-03-07T09:33:37.468Z,16.79
2023-03-07T09:34:37.572Z,17.20
2023-03-07T09:35:37.611Z,17.47
2023-03-07T09:36:37.455Z,17.63
2023-03-07T09:37:37.378Z,17.97
2023-03-07T09:38:37.269Z,18.19
2023-03-07T09:39:37.603Z,18.43
2023-03-07T09:40:37.165Z,18.41
2023-03-07T09:41:37.210Z,18.31
2023-03-07T09:42:37.097Z,18.21
2023-03-07T09:43:37.228Z,18.08
2023-03-07T09:44:37.039Z,18.19
2023-03-07T09:45:38.940Z,18.21
2023-03-07T09:46:37.142Z,18.19
2023-03-07T09:47:36.911Z,18.09
2023-03-07T09:48:36.953Z,17.90
2023-03-07T09:49:36.819Z,17.73
2023-03-07T09:50:38.192Z,17.87
2023-03-07T09:51:36.728Z,17.54
2023-03-07T09:52:36.721Z,17.71
2023-03-07T09:53:36.645Z,17.88
2023-03-07T09:54:36.791Z,18.13
2023-03-07T09:55:36.580Z,18.11
2023-03-07T09:56:36.826Z,18.28
2023-03-07T09:57:36.497Z,18.57
2023-03-07T09:58:36.664Z,18.70
2023-03-07T09:59:36.626Z,19.12
2023-03-07T10:00:36.377Z,19.34
2023-03-07T10:01:36.435Z,19.55
2023-03-07T10:02:36.299Z,19.48
2023-03-07T10:03:36.288Z,19.20
2023-03-07T10:04:36.271Z,19.00
2023-03-07T10:05:36.468Z,19.00
2023-03-07T10:06:36.179Z,18.85
2023-03-07T10:07:36.279Z,18.71
2023-03-07T10:08:36.102Z,18.49
2023-03-07T10:09:36.038Z,18.60
2023-03-07T10:10:36.154Z,18.58
2023-03-07T10:11:37.193Z,18.53
2023-03-07T10:12:35.921Z,18.55
2023-03-07T10:13:37.133Z,18.51
2023-03-07T10:14:35.905Z,18.36
2023-03-07T10:15:35.858Z,18.52
2023-03-07T10:16:37.327Z,18.53
2023-03-07T10:17:35.723Z,18.49
2023-03-07T10:18:35.943Z,18.57
2023-03-07T10:19:35.726Z,18.49
2023-03-07T10:20:35.752Z,18.63
2023-03-07T10:21:35.571Z,18.73
2023-03-07T10:22:35.882Z,18.57
2023-03-07T10:23:35.507Z,18.55
2023-03-07T10:24:37.161Z,18.33
2023-03-07T10:25:35.452Z,18.21
2023-03-07T10:26:35.527Z,18.03
2023-03-07T10:27:35.351Z,17.79
2023-03-07T10:28:35.508Z,17.90
2023-03-07T10:29:35.269Z,18.21
2023-03-07T10:30:35.519Z,18.36
2023-03-07T10:31:35.419Z,18.43
2023-03-07T10:32:35.260Z,18.52
2023-03-07T10:33:35.245Z,18.46
2023-03-07T10:34:35.125Z,18.42
2023-03-07T10:35:35.272Z,18.61
2023-03-07T10:36:35.074Z,18.49
2023-03-07T10:37:35.054Z,18.53
2023-03-07T10:38:34.978Z,18.53
2023-03-07T10:39:35.073Z,18.48
2023-03-07T10:40:35.146Z,18.68
2023-03-07T10:41:35.105Z,18.76
2023-03-07T10:42:34.767Z,18.79
2023-03-07T10:43:34.892Z,18.70
2023-03-07T10:44:34.693Z,18.66
2023-03-07T10:45:35.001Z,18.79
2023-03-07T10:46:36.631Z,18.71
2023-03-07T10:47:35.843Z,18.98
2023-03-07T10:48:34.545Z,19.37
2023-03-07T10:49:34.500Z,19.79
2023-03-07T10:50:34.470Z,20.18
2023-03-07T10:51:34.575Z,20.34
2023-03-07T10:52:45.604Z,20.63
2023-03-07T10:53:34.478Z,20.86
2023-03-07T10:54:34.338Z,21.08
2023-03-07T10:55:34.311Z,21.58
2023-03-07T10:56:34.361Z,22.01
2023-03-07T10:57:35.521Z,22.30
2023-03-07T10:58:34.196Z,22.59
2023-03-07T10:59:34.395Z,23.14
2023-03-07T11:00:34.112Z,23.58
2023-03-07T11:01:34.134Z,24.06
2023-03-07T11:02:57.156Z,24.34
2023-03-07T11:03:45.931Z,24.65
2023-03-07T11:04:41.247Z,24.79
2023-03-07T11:05:33.922Z,24.86
2023-03-07T11:06:33.960Z,24.85
2023-03-07T11:07:33.854Z,24.74
2023-03-07T11:08:33.810Z,24.48
2023-03-07T11:09:33.782Z,24.63
2023-03-07T11:10:33.762Z,24.78
2023-03-07T11:11:33.709Z,24.63
2023-03-07T11:12:33.697Z,24.46
2023-03-07T11:13:33.642Z,24.47
2023-03-07T11:14:33.624Z,24.41
2023-03-07T11:15:33.610Z,23.99
2023-03-07T11:16:33.629Z,23.82
2023-03-07T11:17:41.793Z,23.58
2023-03-07T11:18:33.491Z,23.39
2023-03-07T11:19:33.618Z,23.32
2023-03-07T11:20:33.401Z,23.28
2023-03-07T11:21:34.659Z,22.98
2023-03-07T11:22:33.334Z,22.88
2023-03-07T11:23:33.646Z,22.91
2023-03-07T11:24:33.261Z,22.61
2023-03-07T11:25:33.459Z,22.84
2023-03-07T11:26:33.237Z,23.18
2023-03-07T11:27:33.278Z,23.59
2023-03-07T11:28:33.435Z,23.70
2023-03-07T11:29:33.303Z,23.08
2023-03-07T11:30:33.054Z,22.34
2023-03-07T11:31:33.300Z,22.22
2023-03-07T11:32:33.013Z,22.28
2023-03-07T11:33:33.103Z,21.97
2023-03-07T11:34:32.916Z,21.94
2023-03-07T11:35:32.888Z,21.97
2023-03-07T11:36:32.842Z,22.00
2023-03-07T11:37:33.145Z,22.16
2023-03-07T11:38:32.770Z,22.15
2023-03-07T11:39:32.950Z,22.34
2023-03-07T11:40:32.696Z,22.55
2023-03-07T11:41:32.676Z,22.96
2023-03-07T11:42:32.626Z,23.16
2023-03-07T11:43:32.769Z,23.18
2023-03-07T11:44:32.588Z,23.39
2023-03-07T11:45:33.832Z,23.71
2023-03-07T11:46:32.941Z,23.44
2023-03-07T11:47:32.440Z,23.18
2023-03-07T11:48:32.408Z,22.83
2023-03-07T11:49:32.617Z,22.84
2023-03-07T11:50:32.349Z,22.73
2023-03-07T11:51:32.426Z,22.40
2023-03-07T11:52:32.297Z,22.74
2023-03-07T11:53:32.532Z,23.11
2023-03-07T11:54:32.457Z,23.10
2023-03-07T11:55:33.143Z,22.84
2023-03-07T11:56:32.258Z,22.52
2023-03-07T11:57:32.089Z,22.56
2023-03-07T11:58:32.273Z,22.40
2023-03-07T11:59:32.044Z,22.81
2023-03-07T12:00:32.306Z,22.70
2023-03-07T12:01:31.964Z,22.98
2023-03-07T12:02:32.203Z,23.16
2023-03-07T12:03:31.879Z,23.11
2023-03-07T12:04:51.993Z,23.06
2023-03-07T12:06:56.301Z,23.52
2023-03-07T12:07:55.925Z,23.64
2023-03-07T12:09:18.032Z,23.62
2023-03-07T12:09:55.852Z,23.77
2023-03-07T12:10:55.819Z,23.94
2023-03-07T12:11:55.920Z,23.92
2023-03-07T12:12:55.797Z,23.94
2023-03-07T12:13:55.757Z,24.28
2023-03-07T12:14:55.682Z,24.61
2023-03-07T12:15:55.826Z,25.00
2023-03-07T12:16:55.613Z,24.89
2023-03-07T12:17:55.865Z,24.89
2023-03-07T12:18:55.845Z,24.69
2023-03-07T12:19:55.827Z,24.65
2023-03-07T12:20:55.471Z,24.31
2023-03-07T12:21:55.460Z,23.96
2023-03-07T12:22:55.391Z,23.32
2023-03-07T12:23:55.629Z,22.96
2023-03-07T12:24:55.389Z,22.44
2023-03-07T12:25:55.414Z,22.01
2023-03-07T12:26:55.317Z,21.85
2023-03-07T12:27:55.216Z,21.63
2023-03-07T12:28:55.367Z,21.43
2023-03-07T12:29:55.212Z,20.98
2023-03-07T12:30:55.256Z,21.05
2023-03-07T12:31:55.168Z,21.05
2023-03-07T12:32:55.333Z,20.58
2023-03-07T12:33:54.994Z,20.34
2023-03-07T12:34:55.282Z,20.26
2023-03-07T12:35:55.289Z,20.02
2023-03-07T12:36:55.101Z,19.89
2023-03-07T12:37:54.847Z,19.64
2023-03-07T12:38:54.809Z,19.67
2023-03-07T12:39:54.780Z,19.60
2023-03-07T12:40:54.917Z,19.70
2023-03-07T12:41:54.877Z,19.63
2023-03-07T12:42:55.964Z,19.42
2023-03-07T12:43:54.614Z,19.48
2023-03-07T12:44:54.596Z,19.20
2023-03-07T12:45:54.594Z,19.19
2023-03-07T12:46:54.787Z,19.17
2023-03-07T12:47:54.537Z,19.19
2023-03-07T12:48:54.558Z,19.42
2023-03-07T12:49:54.392Z,19.77
2023-03-07T12:50:54.363Z,20.07
2023-03-07T12:51:54.579Z,20.22
2023-03-07T12:52:54.270Z,20.24
2023-03-07T12:53:54.489Z,20.32
2023-03-07T12:54:54.192Z,20.37
2023-03-07T12:55:54.153Z,20.15
2023-03-07T12:56:54.113Z,19.85
2023-03-07T12:57:54.324Z,19.66
2023-03-07T12:58:54.042Z,19.66
2023-03-07T12:59:54.136Z,19.75
2023-03-07T13:00:53.978Z,19.93
2023-03-07T13:01:53.930Z,20.08
2023-03-07T13:02:53.895Z,20.15
2023-03-07T13:03:54.121Z,20.32
2023-03-07T13:04:53.808Z,20.40
2023-03-07T13:05:53.975Z,20.39
2023-03-07T13:06:53.734Z,20.60
2023-03-07T13:07:53.700Z,20.85
2023-03-07T13:08:53.794Z,20.98
2023-03-07T13:09:53.832Z,21.05
2023-03-07T13:10:53.797Z,21.00
2023-03-07T13:11:53.565Z,20.42
2023-03-07T13:12:53.652Z,20.19
2023-03-07T13:13:53.470Z,20.00
2023-03-07T13:14:53.619Z,19.78
2023-03-07T13:15:53.680Z,19.77
2023-03-07T13:16:54.477Z,19.75